sensor_id;sensor_type;location;lat;lon;timestamp;temperature;humidity
21085;DHT22;34247;50.064;19.970;2023-05-07T00:01:03;27.90;31.10
21085;DHT22;34247;50.064;19.970;2023-05-07T00:02:09;27.90;31.20
21085;DHT22;34247;50.064;19.970;2023-05-07T00:03:25;27.80;31.10
21085;DHT22;34247;50.064;19.970;2023-05-07T00:04:35;27.90;31.20
21085;DHT22;34247;50.064;19.970;2023-05-07T00:05:44;27.90;31.10
21085;DHT22;34247;50.064;19.970;2023-05-07T00:06:48;27.90;31.10
21085;DHT22;34247;50.064;19.970;2023-05-07T00:07:55;27.80;31.10
21085;DHT22;34247;50.064;19.970;2023-05-07T00:09:02;27.80;31.10
21085;DHT22;34247;50.064;19.970;2023-05-07T00:10:10;27.80;31.10
21085;DHT22;34247;50.064;19.970;2023-05-07T00:11:16;27.80;31.10
21085;DHT22;34247;50.064;19.970;2023-05-07T00:12:20;27.80;31.20
21085;DHT22;34247;50.064;19.970;2023-05-07T00:13:24;27.70;31.10
21085;DHT22;34247;50.064;19.970;2023-05-07T00:14:28;27.70;31.20
21085;DHT22;34247;50.064;19.970;2023-05-07T00:15:35;27.80;31.20
21085;DHT22;34247;50.064;19.970;2023-05-07T00:16:39;27.70;31.10
21085;DHT22;34247;50.064;19.970;2023-05-07T00:17:43;27.70;31.20
21085;DHT22;34247;50.064;19.970;2023-05-07T00:18:50;27.60;31.10
21085;DHT22;34247;50.064;19.970;2023-05-07T00:19:54;27.60;31.20
21085;DHT22;34247;50.064;19.970;2023-05-07T00:20:58;27.60;31.20
21085;DHT22;34247;50.064;19.970;2023-05-07T00:22:01;27.60;31.30
21085;DHT22;34247;50.064;19.970;2023-05-07T00:23:09;27.60;31.30
21085;DHT22;34247;50.064;19.970;2023-05-07T00:24:13;27.50;31.40
21085;DHT22;34247;50.064;19.970;2023-05-07T00:25:18;27.50;32.10
21085;DHT22;34247;50.064;19.970;2023-05-07T00:26:23;27.50;31.50
21085;DHT22;34247;50.064;19.970;2023-05-07T00:27:27;27.50;31.50
21085;DHT22;34247;50.064;19.970;2023-05-07T00:28:32;27.50;31.50
21085;DHT22;34247;50.064;19.970;2023-05-07T00:29:36;27.50;31.50
21085;DHT22;34247;50.064;19.970;2023-05-07T00:30:40;27.60;31.50
21085;DHT22;34247;50.064;19.970;2023-05-07T00:31:44;27.50;31.50
21085;DHT22;34247;50.064;19.970;2023-05-07T00:32:48;27.50;31.50
21085;DHT22;34247;50.064;19.970;2023-05-07T00:33:54;27.50;31.50
21085;DHT22;34247;50.064;19.970;2023-05-07T00:34:58;27.40;31.60
21085;DHT22;34247;50.064;19.970;2023-05-07T00:36:03;27.40;31.70
21085;DHT22;34247;50.064;19.970;2023-05-07T00:37:08;27.50;31.60
21085;DHT22;34247;50.064;19.970;2023-05-07T00:38:12;27.50;31.60
21085;DHT22;34247;50.064;19.970;2023-05-07T00:39:16;27.40;31.60
21085;DHT22;34247;50.064;19.970;2023-05-07T00:40:21;27.50;31.50
21085;DHT22;34247;50.064;19.970;2023-05-07T00:41:25;27.50;31.50
21085;DHT22;34247;50.064;19.970;2023-05-07T00:42:29;27.50;31.50
21085;DHT22;34247;50.064;19.970;2023-05-07T00:43:35;27.60;31.40
21085;DHT22;34247;50.064;19.970;2023-05-07T00:44:39;27.50;31.40
21085;DHT22;34247;50.064;19.970;2023-05-07T00:45:43;27.50;31.50
21085;DHT22;34247;50.064;19.970;2023-05-07T00:46:48;27.50;31.40
21085;DHT22;34247;50.064;19.970;2023-05-07T00:47:57;27.50;31.50
21085;DHT22;34247;50.064;19.970;2023-05-07T00:49:07;27.50;31.60
21085;DHT22;34247;50.064;19.970;2023-05-07T00:50:12;27.50;31.50
21085;DHT22;34247;50.064;19.970;2023-05-07T00:51:17;27.50;31.50
21085;DHT22;34247;50.064;19.970;2023-05-07T00:52:24;27.40;31.50
21085;DHT22;34247;50.064;19.970;2023-05-07T00:53:30;27.40;31.50
21085;DHT22;34247;50.064;19.970;2023-05-07T00:54:35;27.40;31.70
21085;DHT22;34247;50.064;19.970;2023-05-07T00:55:40;27.40;31.70
21085;DHT22;34247;50.064;19.970;2023-05-07T00:56:47;27.40;31.70
21085;DHT22;34247;50.064;19.970;2023-05-07T00:57:52;27.30;31.70
21085;DHT22;34247;50.064;19.970;2023-05-07T00:58:56;27.30;31.70
21085;DHT22;34247;50.064;19.970;2023-05-07T01:00:00;27.30;31.90
21085;DHT22;34247;50.064;19.970;2023-05-07T01:01:06;27.30;31.80
21085;DHT22;34247;50.064;19.970;2023-05-07T01:02:11;27.30;31.90
21085;DHT22;34247;50.064;19.970;2023-05-07T01:03:15;27.30;31.90
21085;DHT22;34247;50.064;19.970;2023-05-07T01:04:20;27.20;31.80
21085;DHT22;34247;50.064;19.970;2023-05-07T01:05:26;27.20;31.90
21085;DHT22;34247;50.064;19.970;2023-05-07T01:06:32;27.20;31.90
21085;DHT22;34247;50.064;19.970;2023-05-07T01:07:39;27.30;32.00
21085;DHT22;34247;50.064;19.970;2023-05-07T01:08:46;27.20;31.90
21085;DHT22;34247;50.064;19.970;2023-05-07T01:09:51;27.20;31.90
21085;DHT22;34247;50.064;19.970;2023-05-07T01:10:59;27.20;31.90
21085;DHT22;34247;50.064;19.970;2023-05-07T01:12:07;27.20;31.90
21085;DHT22;34247;50.064;19.970;2023-05-07T01:13:14;27.20;31.90
21085;DHT22;34247;50.064;19.970;2023-05-07T01:14:19;27.20;31.90
21085;DHT22;34247;50.064;19.970;2023-05-07T01:15:24;27.20;31.90
21085;DHT22;34247;50.064;19.970;2023-05-07T01:16:27;27.10;31.80
21085;DHT22;34247;50.064;19.970;2023-05-07T01:17:42;27.10;31.80
21085;DHT22;34247;50.064;19.970;2023-05-07T01:18:46;27.10;31.80
21085;DHT22;34247;50.064;19.970;2023-05-07T01:19:52;27.10;31.90
21085;DHT22;34247;50.064;19.970;2023-05-07T01:20:58;27.10;31.90
21085;DHT22;34247;50.064;19.970;2023-05-07T01:22:09;27.10;31.80
21085;DHT22;34247;50.064;19.970;2023-05-07T01:23:18;27.10;31.90
21085;DHT22;34247;50.064;19.970;2023-05-07T01:24:22;27.10;31.90
21085;DHT22;34247;50.064;19.970;2023-05-07T01:25:27;27.10;32.00
21085;DHT22;34247;50.064;19.970;2023-05-07T01:26:32;27.20;31.90
21085;DHT22;34247;50.064;19.970;2023-05-07T01:27:36;27.20;31.90
21085;DHT22;34247;50.064;19.970;2023-05-07T01:28:41;27.20;31.80
21085;DHT22;34247;50.064;19.970;2023-05-07T01:29:44;27.20;31.80
21085;DHT22;34247;50.064;19.970;2023-05-07T01:30:53;27.20;31.80
21085;DHT22;34247;50.064;19.970;2023-05-07T01:32:03;27.10;31.80
21085;DHT22;34247;50.064;19.970;2023-05-07T01:33:14;27.20;31.90
21085;DHT22;34247;50.064;19.970;2023-05-07T01:34:22;27.20;31.80
21085;DHT22;34247;50.064;19.970;2023-05-07T01:35:32;27.20;31.60
21085;DHT22;34247;50.064;19.970;2023-05-07T01:36:42;27.20;31.50
21085;DHT22;34247;50.064;19.970;2023-05-07T01:37:48;27.30;31.50
21085;DHT22;34247;50.064;19.970;2023-05-07T01:38:53;27.30;31.40
21085;DHT22;34247;50.064;19.970;2023-05-07T01:39:58;27.20;31.30
21085;DHT22;34247;50.064;19.970;2023-05-07T01:41:03;27.20;31.40
21085;DHT22;34247;50.064;19.970;2023-05-07T01:42:10;27.20;31.40
21085;DHT22;34247;50.064;19.970;2023-05-07T01:43:14;27.20;31.40
21085;DHT22;34247;50.064;19.970;2023-05-07T01:44:19;27.10;31.40
21085;DHT22;34247;50.064;19.970;2023-05-07T01:45:25;27.10;31.60
21085;DHT22;34247;50.064;19.970;2023-05-07T01:46:30;27.10;31.60
21085;DHT22;34247;50.064;19.970;2023-05-07T01:47:36;27.00;31.60
21085;DHT22;34247;50.064;19.970;2023-05-07T01:48:41;27.00;31.70
21085;DHT22;34247;50.064;19.970;2023-05-07T01:49:49;26.90;31.70
21085;DHT22;34247;50.064;19.970;2023-05-07T01:50:55;27.00;31.80
21085;DHT22;34247;50.064;19.970;2023-05-07T01:51:59;26.90;31.70
21085;DHT22;34247;50.064;19.970;2023-05-07T01:53:03;27.00;31.60
21085;DHT22;34247;50.064;19.970;2023-05-07T01:54:08;26.90;31.50
21085;DHT22;34247;50.064;19.970;2023-05-07T01:55:11;26.90;31.60
21085;DHT22;34247;50.064;19.970;2023-05-07T01:56:19;26.90;31.50
21085;DHT22;34247;50.064;19.970;2023-05-07T01:57:24;26.80;31.70
21085;DHT22;34247;50.064;19.970;2023-05-07T01:58:29;26.80;31.50
21085;DHT22;34247;50.064;19.970;2023-05-07T01:59:33;26.90;31.50
21085;DHT22;34247;50.064;19.970;2023-05-07T09:28:04;24.80;28.50
21085;DHT22;34247;50.064;19.970;2023-05-07T09:29:16;24.80;28.90
21085;DHT22;34247;50.064;19.970;2023-05-07T09:30:21;24.70;28.90
21085;DHT22;34247;50.064;19.970;2023-05-07T09:31:25;24.70;28.90
21085;DHT22;34247;50.064;19.970;2023-05-07T09:32:29;24.60;29.00
21085;DHT22;34247;50.064;19.970;2023-05-07T09:33:34;24.50;29.00
21085;DHT22;34247;50.064;19.970;2023-05-07T09:34:39;24.50;29.10
21085;DHT22;34247;50.064;19.970;2023-05-07T09:35:43;24.60;29.40
21085;DHT22;34247;50.064;19.970;2023-05-07T09:36:47;24.50;29.20
21085;DHT22;34247;50.064;19.970;2023-05-07T09:37:53;24.50;29.20
21085;DHT22;34247;50.064;19.970;2023-05-07T09:39:01;24.40;29.30
21085;DHT22;34247;50.064;19.970;2023-05-07T09:40:21;24.40;29.40
21085;DHT22;34247;50.064;19.970;2023-05-07T09:41:30;24.40;29.40
21085;DHT22;34247;50.064;19.970;2023-05-07T09:42:35;24.40;29.50
21085;DHT22;34247;50.064;19.970;2023-05-07T09:43:40;24.40;29.40
21085;DHT22;34247;50.064;19.970;2023-05-07T09:44:45;24.40;29.50
21085;DHT22;34247;50.064;19.970;2023-05-07T09:45:51;24.40;29.40
21085;DHT22;34247;50.064;19.970;2023-05-07T09:46:56;24.40;29.40
21085;DHT22;34247;50.064;19.970;2023-05-07T09:48:05;24.40;29.50
21085;DHT22;34247;50.064;19.970;2023-05-07T09:49:16;24.40;29.40
21085;DHT22;34247;50.064;19.970;2023-05-07T09:50:29;24.50;29.40
21085;DHT22;34247;50.064;19.970;2023-05-07T09:51:43;24.50;29.30
21085;DHT22;34247;50.064;19.970;2023-05-07T09:52:54;24.40;29.30
21085;DHT22;34247;50.064;19.970;2023-05-07T09:54:02;24.50;29.30
21085;DHT22;34247;50.064;19.970;2023-05-07T09:55:08;24.40;29.30
21085;DHT22;34247;50.064;19.970;2023-05-07T09:56:15;24.40;29.30
21085;DHT22;34247;50.064;19.970;2023-05-07T09:57:22;24.40;29.30
21085;DHT22;34247;50.064;19.970;2023-05-07T09:58:27;24.30;29.40
21085;DHT22;34247;50.064;19.970;2023-05-07T09:59:33;24.30;29.50
21085;DHT22;34247;50.064;19.970;2023-05-07T10:00:41;24.30;29.50
21085;DHT22;34247;50.064;19.970;2023-05-07T10:01:46;24.20;29.40
21085;DHT22;34247;50.064;19.970;2023-05-07T10:02:56;24.20;29.50
21085;DHT22;34247;50.064;19.970;2023-05-07T10:04:03;24.20;29.60
21085;DHT22;34247;50.064;19.970;2023-05-07T10:05:12;24.20;29.70
21085;DHT22;34247;50.064;19.970;2023-05-07T10:06:21;24.20;29.70
21085;DHT22;34247;50.064;19.970;2023-05-07T10:07:28;24.20;29.70
21085;DHT22;34247;50.064;19.970;2023-05-07T10:08:33;24.20;29.60
21085;DHT22;34247;50.064;19.970;2023-05-07T10:09:39;24.20;29.60
21085;DHT22;34247;50.064;19.970;2023-05-07T10:10:46;24.20;29.50
21085;DHT22;34247;50.064;19.970;2023-05-07T10:11:51;24.20;29.50
21085;DHT22;34247;50.064;19.970;2023-05-07T10:12:57;24.20;29.50
21085;DHT22;34247;50.064;19.970;2023-05-07T10:14:05;24.20;29.50
21085;DHT22;34247;50.064;19.970;2023-05-07T10:15:10;24.20;29.50
21085;DHT22;34247;50.064;19.970;2023-05-07T10:16:15;24.10;29.50
21085;DHT22;34247;50.064;19.970;2023-05-07T10:17:21;24.10;29.60
21085;DHT22;34247;50.064;19.970;2023-05-07T10:18:27;24.10;29.60
21085;DHT22;34247;50.064;19.970;2023-05-07T10:19:36;24.20;29.60
21085;DHT22;34247;50.064;19.970;2023-05-07T10:20:45;24.10;29.60
21085;DHT22;34247;50.064;19.970;2023-05-07T10:21:55;24.10;29.70
21085;DHT22;34247;50.064;19.970;2023-05-07T10:23:05;24.10;29.70
21085;DHT22;34247;50.064;19.970;2023-05-07T10:24:16;24.10;29.80
21085;DHT22;34247;50.064;19.970;2023-05-07T10:25:29;24.10;29.80
21085;DHT22;34247;50.064;19.970;2023-05-07T10:26:35;24.10;29.70
21085;DHT22;34247;50.064;19.970;2023-05-07T10:27:41;24.10;29.80
21085;DHT22;34247;50.064;19.970;2023-05-07T10:28:50;24.10;29.90
21085;DHT22;34247;50.064;19.970;2023-05-07T10:33:15;24.20;29.90
21085;DHT22;34247;50.064;19.970;2023-05-07T10:34:28;24.10;29.90
21085;DHT22;34247;50.064;19.970;2023-05-07T10:35:43;24.10;29.90
21085;DHT22;34247;50.064;19.970;2023-05-07T10:36:50;24.10;29.80
21085;DHT22;34247;50.064;19.970;2023-05-07T10:37:55;24.10;29.80
21085;DHT22;34247;50.064;19.970;2023-05-07T10:38:59;24.10;29.80
21085;DHT22;34247;50.064;19.970;2023-05-07T10:40:04;24.10;29.70
21085;DHT22;34247;50.064;19.970;2023-05-07T10:41:10;24.20;29.60
21085;DHT22;34247;50.064;19.970;2023-05-07T10:42:17;24.20;29.60
21085;DHT22;34247;50.064;19.970;2023-05-07T10:43:21;24.10;29.60
21085;DHT22;34247;50.064;19.970;2023-05-07T10:44:29;24.10;29.60
21085;DHT22;34247;50.064;19.970;2023-05-07T10:45:33;24.10;29.70
21085;DHT22;34247;50.064;19.970;2023-05-07T10:46:36;24.10;29.80
21085;DHT22;34247;50.064;19.970;2023-05-07T10:48:12;24.10;29.90
21085;DHT22;34247;50.064;19.970;2023-05-07T10:49:32;24.10;29.90
21085;DHT22;34247;50.064;19.970;2023-05-07T10:50:43;24.20;29.80
21085;DHT22;34247;50.064;19.970;2023-05-07T10:53:21;24.10;29.70
21085;DHT22;34247;50.064;19.970;2023-05-07T10:54:40;24.10;29.70
21085;DHT22;34247;50.064;19.970;2023-05-07T10:55:49;24.10;29.70
21085;DHT22;34247;50.064;19.970;2023-05-07T10:56:55;24.10;29.70
21085;DHT22;34247;50.064;19.970;2023-05-07T10:58:26;24.10;29.80
21085;DHT22;34247;50.064;19.970;2023-05-07T10:59:36;24.10;29.80
21085;DHT22;34247;50.064;19.970;2023-05-07T11:00:45;24.10;29.80
21085;DHT22;34247;50.064;19.970;2023-05-07T11:01:52;24.10;29.80
21085;DHT22;34247;50.064;19.970;2023-05-07T11:04:16;24.20;29.80
21085;DHT22;34247;50.064;19.970;2023-05-07T11:05:35;24.20;29.80
21085;DHT22;34247;50.064;19.970;2023-05-07T11:06:41;24.20;29.70
21085;DHT22;34247;50.064;19.970;2023-05-07T11:07:54;24.20;29.70
21085;DHT22;34247;50.064;19.970;2023-05-07T11:08:59;24.20;29.70
21085;DHT22;34247;50.064;19.970;2023-05-07T11:10:04;24.20;29.70
21085;DHT22;34247;50.064;19.970;2023-05-07T11:11:10;24.20;29.60
21085;DHT22;34247;50.064;19.970;2023-05-07T11:13:47;24.30;29.40
21085;DHT22;34247;50.064;19.970;2023-05-07T11:14:53;24.30;29.40
21085;DHT22;34247;50.064;19.970;2023-05-07T11:15:58;24.40;29.20
21085;DHT22;34247;50.064;19.970;2023-05-07T11:17:03;24.30;29.20
21085;DHT22;34247;50.064;19.970;2023-05-07T11:18:15;24.40;29.20
21085;DHT22;34247;50.064;19.970;2023-05-07T11:20:58;24.50;29.00
21085;DHT22;34247;50.064;19.970;2023-05-07T11:22:04;24.40;29.00
21085;DHT22;34247;50.064;19.970;2023-05-07T11:24:40;24.50;28.80
21085;DHT22;34247;50.064;19.970;2023-05-07T11:25:46;24.40;28.80
21085;DHT22;34247;50.064;19.970;2023-05-07T11:26:50;24.50;28.80
21085;DHT22;34247;50.064;19.970;2023-05-07T11:28:10;24.40;28.70
21085;DHT22;34247;50.064;19.970;2023-05-07T11:29:17;24.40;28.80
21085;DHT22;34247;50.064;19.970;2023-05-07T11:30:25;24.40;28.80
21085;DHT22;34247;50.064;19.970;2023-05-07T11:31:29;24.40;28.80
21085;DHT22;34247;50.064;19.970;2023-05-07T11:32:33;24.40;28.70
21085;DHT22;34247;50.064;19.970;2023-05-07T11:33:38;24.40;28.70
21085;DHT22;34247;50.064;19.970;2023-05-07T11:34:42;24.50;28.70
21085;DHT22;34247;50.064;19.970;2023-05-07T11:35:49;24.40;28.70
21085;DHT22;34247;50.064;19.970;2023-05-07T11:36:55;24.40;28.80
21085;DHT22;34247;50.064;19.970;2023-05-07T11:38:08;24.40;28.80
21085;DHT22;34247;50.064;19.970;2023-05-07T11:39:33;24.50;28.70
21085;DHT22;34247;50.064;19.970;2023-05-07T11:40:56;24.40;28.60
21085;DHT22;34247;50.064;19.970;2023-05-07T11:42:02;24.40;28.50
21085;DHT22;34247;50.064;19.970;2023-05-07T11:43:11;24.40;28.50
21085;DHT22;34247;50.064;19.970;2023-05-07T11:44:18;24.40;28.60
21085;DHT22;34247;50.064;19.970;2023-05-07T11:45:23;24.40;28.60
21085;DHT22;34247;50.064;19.970;2023-05-07T11:46:34;24.30;28.70
21085;DHT22;34247;50.064;19.970;2023-05-07T11:47:38;24.30;28.80
21085;DHT22;34247;50.064;19.970;2023-05-07T11:48:45;24.30;28.80
21085;DHT22;34247;50.064;19.970;2023-05-07T11:49:51;24.30;28.90
21085;DHT22;34247;50.064;19.970;2023-05-07T11:51:07;24.30;28.90
21085;DHT22;34247;50.064;19.970;2023-05-07T11:52:20;24.30;28.80
21085;DHT22;34247;50.064;19.970;2023-05-07T11:53:27;24.40;28.80
21085;DHT22;34247;50.064;19.970;2023-05-07T11:54:39;24.40;28.70
21085;DHT22;34247;50.064;19.970;2023-05-07T11:55:46;24.40;28.70
21085;DHT22;34247;50.064;19.970;2023-05-07T11:56:51;24.40;28.70
21085;DHT22;34247;50.064;19.970;2023-05-07T11:57:55;24.40;28.70
21085;DHT22;34247;50.064;19.970;2023-05-07T11:58:59;24.40;28.70
21085;DHT22;34247;50.064;19.970;2023-05-07T12:00:04;24.40;28.60
21085;DHT22;34247;50.064;19.970;2023-05-07T12:01:15;24.50;28.60
21085;DHT22;34247;50.064;19.970;2023-05-07T12:02:20;24.50;28.60
21085;DHT22;34247;50.064;19.970;2023-05-07T12:03:25;24.40;28.60
21085;DHT22;34247;50.064;19.970;2023-05-07T12:04:31;24.40;28.60
21085;DHT22;34247;50.064;19.970;2023-05-07T12:05:36;24.50;28.50
21085;DHT22;34247;50.064;19.970;2023-05-07T12:06:43;24.50;28.50
21085;DHT22;34247;50.064;19.970;2023-05-07T12:07:48;24.40;28.50
21085;DHT22;34247;50.064;19.970;2023-05-07T12:08:59;24.40;28.60
21085;DHT22;34247;50.064;19.970;2023-05-07T12:10:07;24.40;28.60
21085;DHT22;34247;50.064;19.970;2023-05-07T12:11:24;24.40;28.70
21085;DHT22;34247;50.064;19.970;2023-05-07T12:12:29;24.40;28.70
21085;DHT22;34247;50.064;19.970;2023-05-07T12:13:36;24.50;28.50
21085;DHT22;34247;50.064;19.970;2023-05-07T12:14:42;24.50;28.50
21085;DHT22;34247;50.064;19.970;2023-05-07T12:15:54;24.50;28.40
21085;DHT22;34247;50.064;19.970;2023-05-07T12:17:02;24.60;28.30
21085;DHT22;34247;50.064;19.970;2023-05-07T12:18:15;24.60;28.30
21085;DHT22;34247;50.064;19.970;2023-05-07T12:19:20;24.60;28.30
21085;DHT22;34247;50.064;19.970;2023-05-07T12:20:26;24.60;28.40
21085;DHT22;34247;50.064;19.970;2023-05-07T12:21:33;24.50;28.40
21085;DHT22;34247;50.064;19.970;2023-05-07T12:22:38;24.50;28.40
21085;DHT22;34247;50.064;19.970;2023-05-07T12:23:42;24.60;28.40
21085;DHT22;34247;50.064;19.970;2023-05-07T12:24:50;24.50;28.30
21085;DHT22;34247;50.064;19.970;2023-05-07T12:26:01;24.50;28.20
21085;DHT22;34247;50.064;19.970;2023-05-07T12:27:09;24.50;28.30
21085;DHT22;34247;50.064;19.970;2023-05-07T12:28:16;24.50;28.20
21085;DHT22;34247;50.064;19.970;2023-05-07T12:29:23;24.40;28.30
21085;DHT22;34247;50.064;19.970;2023-05-07T12:30:28;24.40;28.40
21085;DHT22;34247;50.064;19.970;2023-05-07T12:31:35;24.40;28.40
21085;DHT22;34247;50.064;19.970;2023-05-07T12:32:40;24.40;28.40
21085;DHT22;34247;50.064;19.970;2023-05-07T12:33:45;24.40;28.40
21085;DHT22;34247;50.064;19.970;2023-05-07T12:34:52;24.40;28.40
21085;DHT22;34247;50.064;19.970;2023-05-07T12:35:56;24.40;28.40
21085;DHT22;34247;50.064;19.970;2023-05-07T12:37:02;24.40;28.40
21085;DHT22;34247;50.064;19.970;2023-05-07T12:38:20;24.40;28.40
21085;DHT22;34247;50.064;19.970;2023-05-07T12:39:25;24.50;28.40
21085;DHT22;34247;50.064;19.970;2023-05-07T12:40:36;24.40;28.40
21085;DHT22;34247;50.064;19.970;2023-05-07T12:41:56;24.50;28.40
21085;DHT22;34247;50.064;19.970;2023-05-07T12:43:20;24.50;28.40
21085;DHT22;34247;50.064;19.970;2023-05-07T12:44:32;24.50;28.40
21085;DHT22;34247;50.064;19.970;2023-05-07T12:45:41;24.50;28.30
21085;DHT22;34247;50.064;19.970;2023-05-07T12:46:49;24.60;28.30
21085;DHT22;34247;50.064;19.970;2023-05-07T12:47:56;24.60;28.30
21085;DHT22;34247;50.064;19.970;2023-05-07T12:49:08;24.60;28.30
21085;DHT22;34247;50.064;19.970;2023-05-07T12:50:17;24.60;28.20
21085;DHT22;34247;50.064;19.970;2023-05-07T12:51:25;24.70;28.10
21085;DHT22;34247;50.064;19.970;2023-05-07T12:52:32;24.60;28.00
21085;DHT22;34247;50.064;19.970;2023-05-07T12:53:42;24.70;28.10
21085;DHT22;34247;50.064;19.970;2023-05-07T12:54:51;24.70;28.10
21085;DHT22;34247;50.064;19.970;2023-05-07T12:55:56;24.70;28.00
21085;DHT22;34247;50.064;19.970;2023-05-07T12:57:09;24.70;28.00
21085;DHT22;34247;50.064;19.970;2023-05-07T12:58:34;24.70;28.00
21085;DHT22;34247;50.064;19.970;2023-05-07T12:59:49;24.60;28.00
21085;DHT22;34247;50.064;19.970;2023-05-07T13:01:07;24.60;28.10
21085;DHT22;34247;50.064;19.970;2023-05-07T13:02:14;24.70;27.90
21085;DHT22;34247;50.064;19.970;2023-05-07T13:03:26;24.70;28.00
21085;DHT22;34247;50.064;19.970;2023-05-07T13:04:35;24.70;28.00
21085;DHT22;34247;50.064;19.970;2023-05-07T13:05:40;24.80;28.00
21085;DHT22;34247;50.064;19.970;2023-05-07T13:06:48;24.80;27.80
21085;DHT22;34247;50.064;19.970;2023-05-07T13:07:55;24.80;27.80
21085;DHT22;34247;50.064;19.970;2023-05-07T13:09:00;24.70;27.80
21085;DHT22;34247;50.064;19.970;2023-05-07T13:10:27;24.70;27.80
21085;DHT22;34247;50.064;19.970;2023-05-07T13:11:32;24.60;27.80
21085;DHT22;34247;50.064;19.970;2023-05-07T13:12:36;24.70;27.80
21085;DHT22;34247;50.064;19.970;2023-05-07T13:13:43;24.70;27.80
21085;DHT22;34247;50.064;19.970;2023-05-07T13:14:47;24.70;27.80
21085;DHT22;34247;50.064;19.970;2023-05-07T13:15:51;24.70;27.80
21085;DHT22;34247;50.064;19.970;2023-05-07T13:16:55;24.70;27.70
21085;DHT22;34247;50.064;19.970;2023-05-07T13:17:59;24.60;27.70
21085;DHT22;34247;50.064;19.970;2023-05-07T13:19:03;24.70;27.70
21085;DHT22;34247;50.064;19.970;2023-05-07T13:20:11;24.70;27.80
21085;DHT22;34247;50.064;19.970;2023-05-07T13:21:16;24.70;27.90
21085;DHT22;34247;50.064;19.970;2023-05-07T13:22:23;24.60;27.90
21085;DHT22;34247;50.064;19.970;2023-05-07T13:23:27;24.70;28.50
21085;DHT22;34247;50.064;19.970;2023-05-07T13:24:32;24.70;27.90
21085;DHT22;34247;50.064;19.970;2023-05-07T13:25:35;24.70;27.80
21085;DHT22;34247;50.064;19.970;2023-05-07T13:26:41;24.70;27.80
21085;DHT22;34247;50.064;19.970;2023-05-07T13:27:48;24.70;27.80
21085;DHT22;34247;50.064;19.970;2023-05-07T13:29:14;24.70;27.80
21085;DHT22;34247;50.064;19.970;2023-05-07T13:30:19;24.80;27.70
21085;DHT22;34247;50.064;19.970;2023-05-07T13:31:24;24.80;27.70
21085;DHT22;34247;50.064;19.970;2023-05-07T13:32:29;24.80;27.70
21085;DHT22;34247;50.064;19.970;2023-05-07T13:33:34;24.80;27.70
21085;DHT22;34247;50.064;19.970;2023-05-07T13:34:39;24.80;27.50
21085;DHT22;34247;50.064;19.970;2023-05-07T13:35:43;24.90;27.30
21085;DHT22;34247;50.064;19.970;2023-05-07T13:36:48;24.80;27.40
21085;DHT22;34247;50.064;19.970;2023-05-07T13:37:52;24.80;27.40
21085;DHT22;34247;50.064;19.970;2023-05-07T13:38:58;24.80;27.20
21085;DHT22;34247;50.064;19.970;2023-05-07T13:40:08;24.90;27.30
21085;DHT22;34247;50.064;19.970;2023-05-07T13:41:15;24.80;27.30
21085;DHT22;34247;50.064;19.970;2023-05-07T13:42:20;24.80;27.20
21085;DHT22;34247;50.064;19.970;2023-05-07T13:43:25;24.80;27.10
21085;DHT22;34247;50.064;19.970;2023-05-07T13:44:30;24.80;27.10
21085;DHT22;34247;50.064;19.970;2023-05-07T13:45:39;24.80;27.20
21085;DHT22;34247;50.064;19.970;2023-05-07T13:46:45;24.80;27.60
21085;DHT22;34247;50.064;19.970;2023-05-07T13:47:49;24.80;27.30
21085;DHT22;34247;50.064;19.970;2023-05-07T13:48:54;24.80;27.40
21085;DHT22;34247;50.064;19.970;2023-05-07T13:49:58;24.80;27.30
21085;DHT22;34247;50.064;19.970;2023-05-07T13:51:06;24.80;27.20
21085;DHT22;34247;50.064;19.970;2023-05-07T13:52:11;24.80;27.30
21085;DHT22;34247;50.064;19.970;2023-05-07T13:53:15;24.90;27.30
21085;DHT22;34247;50.064;19.970;2023-05-07T13:54:21;24.90;27.30
21085;DHT22;34247;50.064;19.970;2023-05-07T13:55:29;24.80;27.20
21085;DHT22;34247;50.064;19.970;2023-05-07T13:56:33;24.90;27.30
21085;DHT22;34247;50.064;19.970;2023-05-07T13:57:37;24.90;27.30
21085;DHT22;34247;50.064;19.970;2023-05-07T13:58:41;24.80;27.30
21085;DHT22;34247;50.064;19.970;2023-05-07T14:00:03;24.90;27.30
21085;DHT22;34247;50.064;19.970;2023-05-07T14:01:13;24.80;27.30
21085;DHT22;34247;50.064;19.970;2023-05-07T14:02:17;24.80;27.30
21085;DHT22;34247;50.064;19.970;2023-05-07T14:03:27;24.90;27.30
21085;DHT22;34247;50.064;19.970;2023-05-07T14:04:37;24.80;27.30
21085;DHT22;34247;50.064;19.970;2023-05-07T14:05:42;24.80;27.30
21085;DHT22;34247;50.064;19.970;2023-05-07T14:06:46;24.90;27.20
21085;DHT22;34247;50.064;19.970;2023-05-07T14:07:51;24.80;27.20
21085;DHT22;34247;50.064;19.970;2023-05-07T14:08:58;24.80;27.80
21085;DHT22;34247;50.064;19.970;2023-05-07T14:10:06;24.80;27.40
21085;DHT22;34247;50.064;19.970;2023-05-07T14:11:11;24.70;27.60
21085;DHT22;34247;50.064;19.970;2023-05-07T14:12:14;24.70;27.70
21085;DHT22;34247;50.064;19.970;2023-05-07T14:13:19;24.70;27.80
21085;DHT22;34247;50.064;19.970;2023-05-07T14:14:24;24.70;28.00
21085;DHT22;34247;50.064;19.970;2023-05-07T14:15:32;24.70;27.80
21085;DHT22;34247;50.064;19.970;2023-05-07T14:16:37;24.70;28.00
21085;DHT22;34247;50.064;19.970;2023-05-07T14:17:42;24.80;27.50
21085;DHT22;34247;50.064;19.970;2023-05-07T14:18:48;24.80;27.40
21085;DHT22;34247;50.064;19.970;2023-05-07T14:19:57;24.80;27.30
21085;DHT22;34247;50.064;19.970;2023-05-07T14:21:06;24.80;27.30
21085;DHT22;34247;50.064;19.970;2023-05-07T14:22:14;24.80;27.30
21085;DHT22;34247;50.064;19.970;2023-05-07T14:23:21;24.80;27.40
21085;DHT22;34247;50.064;19.970;2023-05-07T14:24:33;24.80;27.40
21085;DHT22;34247;50.064;19.970;2023-05-07T14:25:42;24.80;27.40
21085;DHT22;34247;50.064;19.970;2023-05-07T14:26:54;24.70;27.40
21085;DHT22;34247;50.064;19.970;2023-05-07T14:27:58;24.70;27.40
21085;DHT22;34247;50.064;19.970;2023-05-07T14:29:03;24.70;27.40
21085;DHT22;34247;50.064;19.970;2023-05-07T14:30:21;24.70;27.40
21085;DHT22;34247;50.064;19.970;2023-05-07T14:31:29;24.70;27.40
21085;DHT22;34247;50.064;19.970;2023-05-07T14:32:33;24.80;27.40
21085;DHT22;34247;50.064;19.970;2023-05-07T14:33:39;24.70;27.40
21085;DHT22;34247;50.064;19.970;2023-05-07T14:34:45;24.70;27.40
21085;DHT22;34247;50.064;19.970;2023-05-07T14:35:50;24.70;27.40
21085;DHT22;34247;50.064;19.970;2023-05-07T14:36:54;24.80;27.30